Terminal Aerodrome Forecast
Issued by NWS

Home | Current Version | Previous Version | Text Only | Print | Product List | Glossary On
Versions: 1 2 3 4 5 6 7 8 9 10 11 12 13 14 15 16 17 18 19 20 21 22 23 24 25 26 27 28 29
000
FTUS42 KTBW 211300 AAA
TAFPIE
TAF AMD
KPIE 211359Z 2114/2212 04006KT P6SM BKN025
     FM211700 34007KT P6SM FEW025 SCT050 SCT250
     FM220200 VRB04KT P6SM SCT045 SCT250=

USA.gov is the U.S. government's official web portal to all federal, state and local government web resources and services.